Time;durP1;ratioP1;P1;durP2;ratioP2;P2;SDS_P1;SDS_P2;PMS_P1;PMS_P2;Temp;Humidity;BMP_temperature;BMP_pressure;BME280_temperature;BME280_humidity;BME280_pressure;Samples;Min_cycle;Max_cycle;Signal;HPM_P1;HPM_P2
2023/05/23 00:01:44;;;;;;;19.80;12.43;;;17.00;72.60;;;;;;5095176;28;20040;-69
2023/05/23 00:04:15;;;;;;;18.13;11.35;;;17.00;72.70;;;;;;5094916;28;20040;-70
2023/05/23 00:06:45;;;;;;;15.38;11.05;;;17.00;72.60;;;;;;5094886;28;20043;-70
2023/05/23 00:09:13;;;;;;;17.77;11.25;;;17.00;72.70;;;;;;5095454;28;20403;-69
2023/05/23 00:11:43;;;;;;;25.08;13.60;;;16.90;72.50;;;;;;5095265;28;20067;-70
2023/05/23 00:14:13;;;;;;;23.45;12.40;;;16.90;72.50;;;;;;5096256;28;20028;-70
2023/05/23 00:16:43;;;;;;;22.35;13.32;;;16.90;72.40;;;;;;5094797;28;20067;-69
2023/05/23 00:19:15;;;;;;;19.73;13.35;;;16.80;72.40;;;;;;5094918;28;20052;-69
2023/05/23 00:21:42;;;;;;;20.00;13.43;;;16.80;72.50;;;;;;5078015;28;20131;-70
2023/05/23 00:24:09;;;;;;;25.13;14.25;;;16.80;72.50;;;;;;5094531;28;20035;-70
2023/05/23 00:26:35;;;;;;;22.55;12.38;;;16.80;72.50;;;;;;5094688;28;20123;-69
2023/05/23 00:29:01;;;;;;;21.98;13.77;;;16.80;72.50;;;;;;5094660;28;20052;-69
2023/05/23 00:31:27;;;;;;;24.02;14.10;;;16.70;72.40;;;;;;5094593;28;20078;-69
2023/05/23 00:33:52;;;;;;;19.05;11.88;;;16.70;72.50;;;;;;5077110;28;20047;-69
2023/05/23 00:36:18;;;;;;;24.45;14.70;;;16.70;72.50;;;;;;5077823;28;20051;-70
2023/05/23 00:38:48;;;;;;;22.25;13.38;;;16.70;72.60;;;;;;5094095;28;20517;-69
2023/05/23 00:41:14;;;;;;;22.02;13.63;;;16.70;72.60;;;;;;5093612;28;20052;-70
2023/05/23 00:43:40;;;;;;;26.83;13.13;;;16.70;72.70;;;;;;5094683;28;20043;-69
2023/05/23 00:46:07;;;;;;;17.25;11.48;;;16.60;72.80;;;;;;5094564;28;20391;-69
2023/05/23 00:48:33;;;;;;;18.92;12.05;;;16.70;72.80;;;;;;5093976;28;20055;-69
2023/05/23 00:50:58;;;;;;;20.85;11.60;;;16.60;72.80;;;;;;5077431;28;20044;-70
2023/05/23 00:53:25;;;;;;;18.17;10.75;;;16.60;72.80;;;;;;5094153;28;20036;-69
2023/05/23 00:55:50;;;;;;;17.35;10.38;;;16.60;72.90;;;;;;5093887;28;20048;-69
2023/05/23 00:58:17;;;;;;;20.02;10.88;;;16.60;72.90;;;;;;5077202;28;20036;-70
2023/05/23 01:00:47;;;;;;;20.45;12.15;;;16.60;72.90;;;;;;5094137;28;20048;-70
2023/05/23 01:03:16;;;;;;;19.92;11.80;;;16.60;72.90;;;;;;5094303;28;20373;-70
2023/05/23 01:05:43;;;;;;;23.10;11.85;;;16.70;73.00;;;;;;5094015;28;20044;-69
2023/05/23 01:08:09;;;;;;;18.98;11.85;;;16.60;72.90;;;;;;5093477;28;20426;-69
2023/05/23 01:10:35;;;;;;;18.42;10.73;;;16.60;72.90;;;;;;5076960;28;20044;-70
2023/05/23 01:13:12;;;;;;;19.17;11.15;;;16.50;72.80;;;;;;5093786;28;20036;-69
2023/05/23 01:15:44;;;;;;;20.00;10.80;;;16.50;72.90;;;;;;5093743;28;20067;-69
2023/05/23 01:18:17;;;;;;;17.27;9.98;;;16.50;72.80;;;;;;5093500;28;20114;-70
2023/05/23 01:20:51;;;;;;;20.90;11.13;;;16.50;72.80;;;;;;5076801;28;20047;-70
2023/05/23 01:23:23;;;;;;;;;;;16.50;73.00;;;;;;5094203;28;20097;-69
2023/05/23 01:26:11;;;;;;;17.92;10.38;;;16.50;72.50;;;;;;5093849;28;19916;-69
2023/05/23 01:28:42;;;;;;;16.40;9.50;;;16.50;72.90;;;;;;5076417;28;20597;-69
2023/05/23 01:31:10;;;;;;;20.98;9.52;;;16.50;73.00;;;;;;5093198;28;20071;-70
2023/05/23 01:33:38;;;;;;;17.48;9.55;;;16.40;72.90;;;;;;5127579;27;20078;-70
2023/05/23 01:36:04;;;;;;;18.25;9.57;;;16.40;72.90;;;;;;5127963;27;20097;-70
2023/05/23 01:38:30;;;;;;;17.00;8.48;;;16.40;72.90;;;;;;5122678;27;20044;-70
2023/05/23 01:40:56;;;;;;;18.65;9.35;;;16.40;73.00;;;;;;5082145;28;20436;-69
2023/05/23 01:43:24;;;;;;;16.33;9.73;;;16.30;72.90;;;;;;5093116;28;20039;-70
2023/05/23 01:45:52;;;;;;;16.75;8.38;;;16.30;73.10;;;;;;5076338;28;20109;-69
2023/05/23 01:48:19;;;;;;;14.10;9.23;;;16.30;73.20;;;;;;5125487;27;20051;-70
2023/05/23 01:50:45;;;;;;;20.00;9.27;;;16.20;73.10;;;;;;5076571;28;20138;-69
2023/05/23 01:53:12;;;;;;;18.23;8.65;;;16.20;73.10;;;;;;5122478;27;20102;-69
2023/05/23 01:55:40;;;;;;;14.30;8.50;;;16.20;73.20;;;;;;5080451;28;20380;-69
2023/05/23 01:58:06;;;;;;;15.23;9.20;;;16.20;73.10;;;;;;5092900;28;20048;-69
2023/05/23 02:00:32;;;;;;;13.23;7.85;;;16.20;73.10;;;;;;5076147;28;20040;-69
2023/05/23 02:02:58;;;;;;;14.65;8.15;;;16.20;73.10;;;;;;5092589;28;20047;-69
2023/05/23 02:05:24;;;;;;;16.95;9.43;;;16.20;73.00;;;;;;5092703;28;20124;-69
2023/05/23 02:07:50;;;;;;;16.25;9.18;;;16.10;72.90;;;;;;5119233;27;20039;-70
2023/05/23 02:10:16;;;;;;;15.80;8.65;;;16.10;72.80;;;;;;5072562;28;20539;-69
2023/05/23 02:12:41;;;;;;;14.82;8.15;;;16.10;72.70;;;;;;5072444;28;20051;-69
2023/05/23 02:15:08;;;;;;;16.65;8.52;;;16.10;72.70;;;;;;5092351;28;20078;-69
2023/05/23 02:17:33;;;;;;;17.80;9.50;;;16.00;72.60;;;;;;5093953;28;20048;-70
2023/05/23 02:19:59;;;;;;;19.10;9.07;;;16.00;72.50;;;;;;5126530;27;20035;-70
2023/05/23 02:22:25;;;;;;;14.98;9.18;;;16.00;72.40;;;;;;5092629;28;20119;-70
2023/05/23 02:24:51;;;;;;;16.40;8.75;;;16.00;72.40;;;;;;5109477;27;20380;-69
2023/05/23 02:27:17;;;;;;;14.82;8.70;;;16.00;72.40;;;;;;5072199;28;20051;-69
2023/05/23 02:29:43;;;;;;;21.23;9.48;;;16.00;72.40;;;;;;5072471;28;20123;-69
2023/05/23 02:32:08;;;;;;;16.30;9.20;;;16.00;72.50;;;;;;5088934;28;20147;-70
2023/05/23 02:34:34;;;;;;;17.38;9.20;;;16.00;72.30;;;;;;5069608;28;20067;-70
2023/05/23 02:37:00;;;;;;;15.65;8.95;;;16.00;72.20;;;;;;5126356;27;20142;-69
2023/05/23 02:39:27;;;;;;;21.77;9.07;;;16.00;72.10;;;;;;5092353;28;20051;-70
2023/05/23 02:41:52;;;;;;;16.58;8.90;;;16.00;71.90;;;;;;5075293;28;20051;-70
2023/05/23 02:44:18;;;;;;;16.13;8.27;;;15.90;71.80;;;;;;5093227;28;20048;-70
2023/05/23 02:46:44;;;;;;;15.10;8.50;;;15.90;71.70;;;;;;5113715;27;20047;-69
2023/05/23 02:49:10;;;;;;;15.25;8.32;;;15.90;71.70;;;;;;5088830;28;20433;-69
2023/05/23 02:51:36;;;;;;;15.52;7.68;;;15.90;71.70;;;;;;5071726;28;20128;-69
2023/05/23 02:54:02;;;;;;;17.05;9.10;;;15.90;71.70;;;;;;5075080;28;20107;-70
2023/05/23 02:56:28;;;;;;;19.00;8.50;;;15.80;71.60;;;;;;5091666;28;20074;-70
2023/05/23 02:58:53;;;;;;;15.73;7.93;;;15.80;71.60;;;;;;5106476;28;20048;-70
2023/05/23 03:01:19;;;;;;;15.77;7.60;;;15.80;71.50;;;;;;5071630;28;20048;-70
2023/05/23 03:03:45;;;;;;;16.08;7.53;;;15.80;71.50;;;;;;5071685;28;20067;-69
2023/05/23 03:06:13;;;;;;;20.45;7.93;;;15.80;71.50;;;;;;5071530;28;20047;-69
2023/05/23 03:08:42;;;;;;;14.05;7.93;;;15.80;71.50;;;;;;5104173;28;20120;-70
2023/05/23 03:11:08;;;;;;;15.18;8.05;;;15.80;71.50;;;;;;5124310;27;20039;-69
2023/05/23 03:13:34;;;;;;;12.80;7.15;;;15.80;71.50;;;;;;5125256;27;20383;-69
2023/05/23 03:16:00;;;;;;;17.38;8.23;;;15.80;71.50;;;;;;5125813;27;20043;-69
2023/05/23 03:18:26;;;;;;;16.30;8.18;;;15.70;71.40;;;;;;5110913;27;20093;-70
2023/05/23 03:20:52;;;;;;;14.90;7.55;;;15.70;71.30;;;;;;5071363;28;20131;-69
2023/05/23 03:23:18;;;;;;;16.63;8.35;;;15.70;71.40;;;;;;5071415;28;20115;-69
2023/05/23 03:25:43;;;;;;;19.60;8.38;;;15.70;71.40;;;;;;5071316;28;20036;-69
2023/05/23 03:28:11;;;;;;;13.80;7.75;;;15.70;71.40;;;;;;5098169;28;20038;-69
2023/05/23 03:30:37;;;;;;;17.25;9.02;;;15.70;71.40;;;;;;5125702;28;20491;-69
2023/05/23 03:33:03;;;;;;;13.77;7.85;;;15.60;71.70;;;;;;5125603;28;20047;-70
2023/05/23 03:35:29;;;;;;;20.80;8.25;;;15.60;71.50;;;;;;5093177;28;20035;-69
2023/05/23 03:37:55;;;;;;;17.85;7.90;;;15.60;71.40;;;;;;5074499;28;20044;-69
2023/05/23 03:40:20;;;;;;;19.02;8.60;;;15.60;71.50;;;;;;5091239;28;20109;-70
2023/05/23 03:42:48;;;;;;;15.63;7.22;;;15.60;71.40;;;;;;5091420;28;20044;-69
2023/05/23 03:45:14;;;;;;;15.73;8.13;;;15.60;71.40;;;;;;5091192;28;20040;-69
2023/05/23 03:47:41;;;;;;;20.25;7.97;;;15.60;71.40;;;;;;5090994;28;20127;-69
2023/05/23 03:50:07;;;;;;;11.48;7.65;;;15.60;71.40;;;;;;5125696;28;20047;-69
2023/05/23 03:52:33;;;;;;;14.38;6.80;;;15.60;71.40;;;;;;5125715;28;20051;-70
2023/05/23 03:54:59;;;;;;;18.35;6.63;;;15.60;71.40;;;;;;5091363;28;20491;-70
2023/05/23 03:57:24;;;;;;;17.20;7.05;;;15.50;71.40;;;;;;5103680;28;20036;-70
2023/05/23 03:59:50;;;;;;;14.35;6.75;;;15.50;71.40;;;;;;5071133;28;20056;-70
2023/05/23 04:02:16;;;;;;;15.25;6.35;;;15.50;71.40;;;;;;5086496;28;20097;-70
2023/05/23 04:04:42;;;;;;;16.08;6.65;;;15.50;71.40;;;;;;5074765;28;20043;-70
2023/05/23 04:07:08;;;;;;;13.65;6.32;;;15.40;71.40;;;;;;5091137;28;20079;-70
2023/05/23 04:09:34;;;;;;;17.08;6.57;;;15.40;71.40;;;;;;5074171;28;20048;-70
2023/05/23 04:12:00;;;;;;;11.75;5.35;;;15.40;71.40;;;;;;5125505;28;20047;-70
2023/05/23 04:14:26;;;;;;;15.48;5.95;;;15.40;71.50;;;;;;5125103;28;20054;-70
2023/05/23 04:16:52;;;;;;;11.07;4.93;;;15.40;71.40;;;;;;5076417;28;20128;-70
2023/05/23 04:19:18;;;;;;;16.25;5.50;;;15.40;71.50;;;;;;5077983;28;20047;-70
2023/05/23 04:21:44;;;;;;;16.67;5.38;;;15.40;71.50;;;;;;5096145;28;20036;-70
2023/05/23 04:24:10;;;;;;;11.13;5.15;;;15.30;71.40;;;;;;5094866;28;20036;-70
2023/05/23 04:26:35;;;;;;;12.52;5.53;;;15.40;71.50;;;;;;5095925;28;20115;-70
2023/05/23 04:29:03;;;;;;;13.43;5.70;;;15.40;71.60;;;;;;5074546;28;20555;-70
2023/05/23 04:31:28;;;;;;;15.75;5.68;;;15.30;71.40;;;;;;5108258;27;20052;-70
2023/05/23 04:33:55;;;;;;;13.40;5.05;;;15.30;71.50;;;;;;5095066;28;20407;-70
2023/05/23 04:36:22;;;;;;;11.02;4.88;;;15.30;71.40;;;;;;5094495;28;20054;-70
2023/05/23 04:38:48;;;;;;;10.80;4.85;;;15.30;71.40;;;;;;5061060;28;20565;-70
2023/05/23 04:41:15;;;;;;;14.73;5.85;;;15.30;71.50;;;;;;5127871;27;20056;-70
2023/05/23 04:43:41;;;;;;;16.70;5.90;;;15.30;71.50;;;;;;5094968;27;20483;-70
2023/05/23 04:46:08;;;;;;;14.85;6.32;;;15.30;71.50;;;;;;5128569;27;20040;-70
2023/05/23 04:48:36;;;;;;;18.50;5.60;;;15.20;71.40;;;;;;5112004;27;20056;-70
2023/05/23 04:51:05;;;;;;;13.88;5.22;;;15.20;71.30;;;;;;5082612;28;20070;-71
2023/05/23 04:53:30;;;;;;;14.00;5.53;;;15.20;71.20;;;;;;5078192;28;20048;-70
2023/05/23 04:55:56;;;;;;;12.40;5.10;;;15.20;71.10;;;;;;5094162;28;20505;-70
2023/05/23 04:58:22;;;;;;;13.40;4.50;;;15.20;71.10;;;;;;5092687;28;20121;-70
2023/05/23 05:00:47;;;;;;;9.27;4.05;;;15.20;71.00;;;;;;5093352;28;20094;-70
2023/05/23 05:03:15;;;;;;;11.02;4.18;;;15.20;71.10;;;;;;5093115;28;20040;-70
2023/05/23 05:05:41;;;;;;;12.85;4.93;;;15.20;71.60;;;;;;5107402;28;20093;-70
2023/05/23 05:08:07;;;;;;;13.43;5.45;;;15.10;71.00;;;;;;5110862;28;20040;-70
2023/05/23 05:10:32;;;;;;;13.73;5.10;;;15.10;70.90;;;;;;5128075;27;20124;-70
2023/05/23 05:12:58;;;;;;;14.15;5.53;;;15.10;70.80;;;;;;5112607;27;20044;-70
2023/05/23 05:15:24;;;;;;;11.63;4.75;;;15.10;70.60;;;;;;5057901;28;20044;-70
2023/05/23 05:17:50;;;;;;;10.95;4.45;;;15.10;70.30;;;;;;5107956;27;20044;-70
2023/05/23 05:20:16;;;;;;;10.65;4.55;;;15.10;69.90;;;;;;5079602;28;20055;-70
2023/05/23 05:22:42;;;;;;;12.23;4.50;;;15.00;69.80;;;;;;5076455;28;20483;-70
2023/05/23 05:25:09;;;;;;;9.98;4.13;;;15.00;69.60;;;;;;5127761;27;20075;-70
2023/05/23 05:27:39;;;;;;;10.18;4.50;;;15.00;69.70;;;;;;5075524;28;20097;-70
2023/05/23 05:30:07;;;;;;;10.82;4.32;;;14.90;69.70;;;;;;5123324;27;20127;-70
2023/05/23 05:32:33;;;;;;;10.90;4.70;;;14.90;69.70;;;;;;5100013;28;20052;-70
2023/05/23 05:35:03;;;;;;;9.68;4.68;;;14.90;69.70;;;;;;5093682;28;20044;-70
2023/05/23 05:37:29;;;;;;;13.55;5.43;;;14.90;69.50;;;;;;5073082;28;20040;-70
2023/05/23 05:39:55;;;;;;;12.48;4.55;;;14.90;69.60;;;;;;5095716;28;20040;-70
2023/05/23 05:42:21;;;;;;;14.35;5.43;;;14.80;69.60;;;;;;5111517;27;20040;-70
2023/05/23 05:44:47;;;;;;;10.95;4.43;;;14.80;69.50;;;;;;5075494;28;20032;-70
2023/05/23 05:47:13;;;;;;;13.57;5.05;;;14.80;69.60;;;;;;5108914;27;20151;-70
2023/05/23 05:49:39;;;;;;;12.43;5.93;;;14.80;69.60;;;;;;5073158;28;20060;-70
2023/05/23 05:52:08;;;;;;;14.20;5.93;;;14.80;69.50;;;;;;5089657;28;20403;-70
2023/05/23 05:54:34;;;;;;;15.65;5.70;;;14.80;69.40;;;;;;5072731;28;20040;-70
2023/05/23 05:57:00;;;;;;;14.10;5.13;;;14.80;69.10;;;;;;5078616;28;20536;-70
2023/05/23 05:59:26;;;;;;;11.35;5.15;;;14.70;68.90;;;;;;5092812;28;20123;-70
2023/05/23 06:01:52;;;;;;;8.98;4.45;;;14.70;68.60;;;;;;5092748;28;20127;-70
2023/05/23 06:04:18;;;;;;;13.25;5.07;;;14.70;68.50;;;;;;5075374;28;20134;-70
2023/05/23 06:06:44;;;;;;;9.35;4.97;;;14.70;68.40;;;;;;5055826;28;20037;-70
2023/05/23 06:09:10;;;;;;;13.30;4.90;;;14.70;68.40;;;;;;5106356;28;20044;-70
2023/05/23 06:11:39;;;;;;;11.43;5.18;;;14.70;68.50;;;;;;5106364;28;20072;-70
2023/05/23 06:14:05;;;;;;;12.13;5.68;;;14.70;68.70;;;;;;5066584;28;20051;-70
2023/05/23 06:16:31;;;;;;;10.02;4.40;;;14.70;68.70;;;;;;5076187;28;20384;-70
2023/05/23 06:18:57;;;;;;;10.63;4.45;;;14.70;68.70;;;;;;5090773;28;20042;-70
2023/05/23 06:21:22;;;;;;;9.80;5.28;;;14.70;68.60;;;;;;5091843;28;20134;-70
2023/05/23 06:23:48;;;;;;;13.25;4.70;;;14.70;68.80;;;;;;5126624;27;20449;-70
2023/05/23 06:26:14;;;;;;;9.27;4.40;;;14.70;68.60;;;;;;5126946;27;20131;-70
2023/05/23 06:28:39;;;;;;;11.07;4.10;;;14.70;68.20;;;;;;5126543;27;20432;-70
2023/05/23 06:31:05;;;;;;;11.07;3.33;;;14.70;67.80;;;;;;5093602;28;20396;-70
2023/05/23 06:33:31;;;;;;;13.05;3.65;;;14.70;67.70;;;;;;5075458;28;20042;-70
2023/05/23 06:35:57;;;;;;;9.02;3.75;;;14.70;67.70;;;;;;5109946;27;20037;-70
2023/05/23 06:38:25;;;;;;;11.95;3.53;;;14.70;67.60;;;;;;5091805;28;20047;-70
2023/05/23 06:40:51;;;;;;;8.60;3.10;;;14.60;67.30;;;;;;5092035;28;20131;-70
2023/05/23 06:43:17;;;;;;;12.13;4.15;;;14.60;67.60;;;;;;5075366;28;20185;-70
2023/05/23 06:45:46;;;;;;;9.63;4.43;;;14.60;67.90;;;;;;5092438;28;20051;-70
2023/05/23 06:48:12;;;;;;;6.65;2.97;;;14.60;68.20;;;;;;5075258;28;20047;-70
2023/05/23 06:50:38;;;;;;;12.15;4.22;;;14.60;68.40;;;;;;5091742;28;20039;-70
2023/05/23 06:53:05;;;;;;;11.65;3.35;;;14.60;68.50;;;;;;5092232;28;20044;-71
2023/05/23 06:55:32;;;;;;;8.50;3.45;;;14.60;68.30;;;;;;5092034;28;20122;-70
2023/05/23 06:57:58;;;;;;;8.95;3.08;;;14.60;68.40;;;;;;5091807;28;20047;-71
2023/05/23 07:00:24;;;;;;;17.95;3.92;;;14.60;68.40;;;;;;5074745;28;20047;-70
2023/05/23 07:02:50;;;;;;;13.07;3.92;;;14.60;67.90;;;;;;5125798;27;20403;-70
2023/05/23 07:05:16;;;;;;;15.63;4.45;;;14.60;67.90;;;;;;5125539;27;20097;-70
2023/05/23 07:07:42;;;;;;;14.55;3.95;;;14.60;66.20;;;;;;5074592;28;20054;-70
2023/05/23 07:10:09;;;;;;;8.38;3.40;;;14.70;66.00;;;;;;5092915;28;20031;-70
2023/05/23 07:12:35;;;;;;;14.68;3.72;;;14.70;65.80;;;;;;5126107;27;20047;-71
2023/05/23 07:15:01;;;;;;;13.15;3.42;;;14.90;64.70;;;;;;5125805;27;20040;-70
2023/05/23 07:17:28;;;;;;;14.00;3.58;;;15.00;63.70;;;;;;5126082;27;20083;-70
2023/05/23 07:19:54;;;;;;;13.73;4.25;;;15.10;63.60;;;;;;5108856;28;20505;-70
2023/05/23 07:22:20;;;;;;;16.95;4.00;;;15.30;63.00;;;;;;5125712;27;20118;-70
2023/05/23 07:24:46;;;;;;;11.93;3.67;;;15.40;63.10;;;;;;5074703;28;20039;-70
2023/05/23 07:27:12;;;;;;;11.88;3.50;;;15.60;63.00;;;;;;5091835;28;20082;-71
2023/05/23 07:29:38;;;;;;;13.77;3.75;;;15.70;61.30;;;;;;5091831;28;20451;-70
2023/05/23 07:32:04;;;;;;;13.32;3.22;;;15.80;59.80;;;;;;5091558;28;20506;-71
2023/05/23 07:34:30;;;;;;;13.18;3.90;;;15.80;59.70;;;;;;5074722;28;20043;-71
2023/05/23 07:36:55;;;;;;;8.40;2.60;;;15.90;59.30;;;;;;5075019;28;20036;-71
2023/05/23 07:39:23;;;;;;;9.90;2.80;;;15.90;59.60;;;;;;5091471;28;20123;-71
2023/05/23 07:41:49;;;;;;;12.18;3.78;;;16.00;59.10;;;;;;5074694;28;20056;-70
2023/05/23 07:44:17;;;;;;;11.65;3.17;;;16.00;58.70;;;;;;5091810;28;20079;-70
2023/05/23 07:46:43;;;;;;;12.30;3.47;;;16.10;58.60;;;;;;5091440;28;20055;-70
2023/05/23 07:49:09;;;;;;;16.40;3.92;;;16.10;58.30;;;;;;5091370;28;20044;-70
2023/05/23 07:51:35;;;;;;;13.52;4.18;;;16.10;58.70;;;;;;5093599;28;20384;-70
2023/05/23 07:54:00;;;;;;;11.05;3.88;;;16.10;58.70;;;;;;5095369;28;20101;-70
2023/05/23 07:56:26;;;;;;;11.05;3.33;;;16.10;58.00;;;;;;5095593;28;20044;-70
2023/05/23 07:58:52;;;;;;;13.18;3.75;;;16.10;57.70;;;;;;5094585;28;20044;-70
2023/05/23 08:01:19;;;;;;;11.45;3.40;;;16.10;57.80;;;;;;5095370;28;20105;-70
2023/05/23 08:03:45;;;;;;;11.85;3.20;;;16.10;57.80;;;;;;5095085;28;20075;-68
2023/05/23 08:06:10;;;;;;;12.25;3.20;;;16.10;57.70;;;;;;5095151;28;20491;-70
2023/05/23 08:08:36;;;;;;;11.23;3.25;;;16.10;58.00;;;;;;5095131;28;20127;-70
2023/05/23 08:11:02;;;;;;;14.38;3.33;;;16.10;57.80;;;;;;5095030;28;20094;-71
2023/05/23 08:13:29;;;;;;;17.67;3.80;;;16.20;57.90;;;;;;5129229;27;20097;-68
2023/05/23 08:15:55;;;;;;;16.13;3.55;;;16.20;57.60;;;;;;5078089;28;20048;-70
2023/05/23 08:18:20;;;;;;;18.70;4.20;;;16.20;57.50;;;;;;5095017;28;20036;-71
2023/05/23 08:20:46;;;;;;;14.85;4.40;;;16.20;57.60;;;;;;5096075;28;20040;-68
2023/05/23 08:23:12;;;;;;;11.00;3.35;;;16.30;57.40;;;;;;5129065;27;20480;-71
2023/05/23 08:25:38;;;;;;;15.60;4.03;;;16.30;57.10;;;;;;5128707;27;20039;-71
2023/05/23 08:28:04;;;;;;;10.52;2.83;;;16.30;56.80;;;;;;5129197;27;20097;-71
2023/05/23 08:30:32;;;;;;;14.32;3.92;;;16.30;57.40;;;;;;5129283;27;20433;-68
2023/05/23 08:32:59;;;;;;;9.20;2.80;;;16.30;57.40;;;;;;5118970;27;20044;-67
2023/05/23 08:35:25;;;;;;;13.25;3.70;;;16.30;56.80;;;;;;5070746;28;20047;-67
2023/05/23 08:37:51;;;;;;;13.18;4.28;;;16.30;56.50;;;;;;5067173;28;20052;-67
2023/05/23 08:40:21;;;;;;;14.18;3.50;;;16.40;56.20;;;;;;5085318;28;20047;-67
2023/05/23 08:42:47;;;;;;;12.55;3.50;;;16.40;56.00;;;;;;5094576;28;20395;-67
2023/05/23 08:45:14;;;;;;;10.82;3.33;;;16.40;55.70;;;;;;5128408;27;20488;-67
2023/05/23 08:47:43;;;;;;;11.65;3.08;;;16.40;55.60;;;;;;5128198;27;20051;-65
2023/05/23 08:50:16;;;;;;;14.85;3.65;;;16.40;55.30;;;;;;5094025;28;20605;-67
2023/05/23 08:52:58;;;;;;;18.58;4.35;;;16.60;55.30;;;;;;5077831;28;20399;-67
2023/05/23 08:55:28;;;;;;;14.40;4.00;;;16.60;55.00;;;;;;5125616;27;20039;-67
2023/05/23 08:57:54;;;;;;;12.18;4.30;;;16.70;55.30;;;;;;5077410;28;20058;-67
2023/05/23 09:00:21;;;;;;;12.95;4.00;;;16.80;56.00;;;;;;5127614;27;20085;-67
2023/05/23 09:02:47;;;;;;;12.77;3.63;;;16.90;56.10;;;;;;5093147;28;20502;-67
2023/05/23 09:05:13;;;;;;;12.90;4.20;;;17.10;56.50;;;;;;5093935;28;20406;-66
2023/05/23 09:07:39;;;;;;;12.15;3.10;;;17.30;55.70;;;;;;5093576;28;20043;-67
2023/05/23 09:10:07;;;;;;;12.13;3.15;;;17.40;53.00;;;;;;5093836;28;20040;-67
2023/05/23 09:12:36;;;;;;;12.70;3.15;;;17.50;52.50;;;;;;5093884;28;20048;-70
2023/05/23 09:15:09;;;;;;;11.02;3.22;;;17.60;51.50;;;;;;5093713;28;20058;-70
2023/05/23 09:17:35;;;;;;;7.18;3.05;;;17.70;52.80;;;;;;5093574;28;20047;-70
2023/05/23 09:20:13;;;;;;;8.25;2.85;;;17.80;52.30;;;;;;5093784;28;20106;-70
2023/05/23 09:22:40;;;;;;;11.73;3.92;;;17.90;50.40;;;;;;5077201;28;20040;-70
2023/05/23 09:25:06;;;;;;;13.32;3.42;;;18.00;51.40;;;;;;5094005;28;20050;-70
2023/05/23 09:27:32;;;;;;;11.20;3.25;;;18.10;50.60;;;;;;5093988;28;20547;-70
2023/05/23 09:30:09;;;;;;;11.52;3.70;;;18.20;50.00;;;;;;5093348;28;20072;-70
2023/05/23 09:32:34;;;;;;;9.93;3.67;;;18.30;49.90;;;;;;5093626;28;20047;-70
2023/05/23 09:35:05;;;;;;;12.27;3.80;;;18.40;50.80;;;;;;5093434;28;20055;-71
2023/05/23 09:37:33;;;;;;;12.45;3.95;;;18.50;50.40;;;;;;5093517;28;20051;-70
2023/05/23 09:40:08;;;;;;;10.73;3.40;;;18.70;50.40;;;;;;5093134;28;20040;-70
2023/05/23 09:42:35;;;;;;;8.48;3.80;;;18.80;48.60;;;;;;5093389;28;20055;-70
2023/05/23 09:45:01;;;;;;;11.02;3.05;;;18.80;49.70;;;;;;5093415;28;20062;-70
2023/05/23 09:47:27;;;;;;;9.93;3.35;;;18.90;48.60;;;;;;5059909;28;20044;-70
2023/05/23 09:49:53;;;;;;;11.05;3.45;;;18.90;48.80;;;;;;5127604;27;20101;-70
2023/05/23 09:52:19;;;;;;;9.73;3.25;;;18.90;48.20;;;;;;5093170;28;20533;-70
2023/05/23 09:54:45;;;;;;;9.95;3.22;;;19.00;48.50;;;;;;5127277;27;20043;-70
2023/05/23 09:57:12;;;;;;;10.40;3.22;;;19.10;47.10;;;;;;5127390;27;20126;-70
2023/05/23 09:59:49;;;;;;;9.18;3.50;;;19.20;46.00;;;;;;5127270;27;20073;-70
2023/05/23 10:02:21;;;;;;;11.45;2.95;;;19.10;45.90;;;;;;5109155;27;20131;-70
2023/05/23 10:04:49;;;;;;;12.27;3.20;;;19.20;46.50;;;;;;5073076;28;20066;-70
2023/05/23 10:07:21;;;;;;;9.70;3.38;;;19.20;47.60;;;;;;5072736;28;20412;-70
2023/05/23 10:09:53;;;;;;;11.00;3.00;;;19.30;47.90;;;;;;5089390;28;20050;-70
2023/05/23 10:12:31;;;;;;;12.50;4.10;;;19.30;48.20;;;;;;5072805;28;20467;-70
2023/05/23 10:15:03;;;;;;;11.43;3.35;;;19.50;48.50;;;;;;5071691;28;20502;-70
2023/05/23 10:17:45;;;;;;;9.90;3.25;;;19.60;48.60;;;;;;5077245;28;20048;-70
2023/05/23 10:20:15;;;;;;;13.20;4.03;;;19.80;47.40;;;;;;5126190;27;20047;-70
2023/05/23 10:22:41;;;;;;;7.63;2.67;;;19.90;45.50;;;;;;5126350;27;20040;-70
2023/05/23 10:25:09;;;;;;;13.15;2.78;;;19.90;45.20;;;;;;5126757;27;20048;-71
2023/05/23 10:27:38;;;;;;;10.00;2.50;;;19.90;45.30;;;;;;5126600;27;20052;-70
2023/05/23 10:30:08;;;;;;;13.23;4.32;;;19.90;45.50;;;;;;5126780;27;20451;-70
2023/05/23 10:32:37;;;;;;;9.75;2.97;;;20.00;45.90;;;;;;5092717;27;20399;-70
2023/05/23 10:35:44;;;;;;;8.90;2.60;;;20.10;44.20;;;;;;5114225;27;20119;-70
2023/05/23 10:38:29;;;;;;;12.52;3.42;;;20.10;43.40;;;;;;5071809;28;20048;-70
2023/05/23 10:41:17;;;;;;;9.85;3.45;;;20.10;43.60;;;;;;5071797;28;20059;-70
2023/05/23 10:44:19;;;;;;;13.82;4.20;;;20.10;45.20;;;;;;5072193;28;20044;-71
2023/05/23 10:46:57;;;;;;;6.90;2.35;;;20.10;45.20;;;;;;5072153;28;20051;-70
2023/05/23 10:49:40;;;;;;;11.05;3.03;;;20.10;45.30;;;;;;5072144;28;20055;-70
2023/05/23 10:52:07;;;;;;;10.57;2.97;;;20.20;45.30;;;;;;5086410;28;20036;-70
2023/05/23 10:54:43;;;;;;;10.27;3.30;;;20.20;44.90;;;;;;5091962;28;20044;-70
2023/05/23 10:57:11;;;;;;;10.60;2.92;;;20.30;44.90;;;;;;5091964;28;20052;-70
2023/05/23 10:59:41;;;;;;;11.20;3.03;;;20.30;44.00;;;;;;5091887;28;20048;-70
2023/05/23 11:02:14;;;;;;;10.57;2.75;;;20.30;42.60;;;;;;5092190;28;20052;-70
2023/05/23 11:04:41;;;;;;;12.70;2.85;;;20.20;43.80;;;;;;5092130;28;20043;-70
2023/05/23 11:07:30;;;;;;;12.02;3.10;;;20.10;43.20;;;;;;5091903;28;20051;-70
2023/05/23 11:10:10;;;;;;;9.98;2.78;;;20.00;44.20;;;;;;5105356;28;20048;-69
2023/05/23 11:12:43;;;;;;;11.07;2.40;;;20.00;43.50;;;;;;5105273;28;20049;-70
2023/05/23 11:15:21;;;;;;;10.15;2.55;;;20.00;43.80;;;;;;5105330;28;20048;-67
2023/05/23 11:17:55;;;;;;;11.30;2.78;;;20.00;44.20;;;;;;5105391;28;20044;-66
2023/05/23 11:20:25;;;;;;;7.93;2.65;;;20.00;44.30;;;;;;5054670;28;20551;-66
2023/05/23 11:22:59;;;;;;;8.75;2.85;;;20.00;44.20;;;;;;5105240;28;20040;-66
2023/05/23 11:25:47;;;;;;;10.32;3.67;;;20.00;43.40;;;;;;5081807;28;20043;-66
2023/05/23 11:28:13;;;;;;;10.50;2.80;;;19.90;43.60;;;;;;5091557;28;20052;-66
2023/05/23 11:30:40;;;;;;;9.35;3.28;;;19.90;44.30;;;;;;5091890;28;20506;-66
2023/05/23 11:33:13;;;;;;;15.32;3.90;;;20.00;44.10;;;;;;5074832;28;20491;-66
2023/05/23 11:35:44;;;;;;;9.93;2.80;;;20.00;43.70;;;;;;5091597;28;20043;-66
2023/05/23 11:38:10;;;;;;;8.35;2.65;;;19.90;41.90;;;;;;5091752;28;20403;-66
2023/05/23 11:40:37;;;;;;;10.40;2.72;;;19.90;42.00;;;;;;5090884;28;20055;-69
2023/05/23 11:43:05;;;;;;;10.75;2.85;;;19.80;41.90;;;;;;5088716;28;20076;-69
2023/05/23 11:45:32;;;;;;;8.23;2.60;;;19.70;42.70;;;;;;5077300;28;20039;-69
2023/05/23 11:47:58;;;;;;;8.82;2.35;;;19.70;43.40;;;;;;5090954;28;20442;-69
2023/05/23 11:50:24;;;;;;;12.13;2.90;;;19.60;44.20;;;;;;5108323;28;20083;-69
2023/05/23 11:52:50;;;;;;;10.65;3.08;;;19.60;44.10;;;;;;5083210;28;20063;-70
2023/05/23 11:55:20;;;;;;;9.40;2.70;;;19.70;43.80;;;;;;5074328;28;20513;-69
2023/05/23 11:57:47;;;;;;;9.93;2.97;;;19.70;43.90;;;;;;5091353;28;20051;-70
2023/05/23 12:00:14;;;;;;;13.23;3.15;;;19.70;43.40;;;;;;5091272;28;20125;-70
2023/05/23 12:02:40;;;;;;;10.32;2.90;;;19.80;43.70;;;;;;5091328;28;20089;-70
2023/05/23 12:05:08;;;;;;;8.60;2.70;;;19.80;43.50;;;;;;5091044;28;20046;-66
2023/05/23 12:07:35;;;;;;;8.00;2.85;;;19.80;42.60;;;;;;5125088;28;20089;-66
2023/05/23 12:10:02;;;;;;;8.35;2.97;;;19.80;42.10;;;;;;5073689;28;20115;-66
2023/05/23 12:12:30;;;;;;;8.20;2.53;;;19.80;42.80;;;;;;5088072;28;20052;-69
2023/05/23 12:14:56;;;;;;;8.98;2.78;;;19.90;43.40;;;;;;5090165;28;20545;-69
2023/05/23 12:17:22;;;;;;;10.13;2.78;;;19.90;43.90;;;;;;5091029;28;20036;-69
2023/05/23 12:19:48;;;;;;;11.02;3.50;;;19.90;43.20;;;;;;5090581;28;20097;-69
2023/05/23 12:22:14;;;;;;;9.77;2.80;;;20.00;43.20;;;;;;5090902;28;20036;-69
2023/05/23 12:24:46;;;;;;;6.70;2.40;;;20.00;43.50;;;;;;5091118;28;20119;-69
2023/05/23 12:27:12;;;;;;;7.93;2.40;;;20.00;42.30;;;;;;5090756;28;20055;-69
2023/05/23 12:29:38;;;;;;;8.00;2.50;;;20.00;42.20;;;;;;5091031;28;20040;-70
2023/05/23 12:32:06;;;;;;;7.60;3.00;;;19.90;41.70;;;;;;5091173;28;20059;-69
2023/05/23 12:34:32;;;;;;;7.65;2.40;;;19.90;42.60;;;;;;5091135;28;20055;-70
2023/05/23 12:36:59;;;;;;;8.63;2.92;;;19.90;43.40;;;;;;5091927;28;20040;-69
2023/05/23 12:39:27;;;;;;;9.40;2.40;;;20.00;43.60;;;;;;5094738;28;20039;-69
2023/05/23 12:41:57;;;;;;;6.03;2.47;;;20.10;43.10;;;;;;5094454;28;20056;-69